Eurika — LYRZ — position and weather

sailwx.info

Track history (hours):
 
Tides and Currents Weather Stations Pressure Air Temp Water Temp Dewpoint Dewpoint Depression Visibility Wind Speed Wind Dir Waves Ship Positions

Eurika

Last reported at 2017-Mar-25 01:10 UTC. Time now 2017-Mar-25 03:54 UTC.
Position N 43°23' E 004°48'.

Length 79 m; draft 3.1 m.

MMSI: 277335000.

Date/timePositionNaut miles runAvg speedWind from/ knotsBaromVisibWave heightAir tempDewpointWater temp
2017-Mar-25 01:10N 43°23' E 004°48'  
2017-Mar-17 18:15N 43°23' E 004°48'0 0.0
2017-Mar-17 17:30N 43°23' E 004°48'0 0.0
2017-Mar-17 16:33N 43°23' E 004°48'0 0.0
2017-Mar-17 15:27N 43°23' E 004°48'0 0.0
2017-Mar-17 14:33N 43°23' E 004°48'0 0.0
2017-Mar-17 13:33N 43°23' E 004°48'0 0.0
2017-Mar-17 12:33N 43°23' E 004°48'0 0.0
2017-Mar-17 11:24N 43°23' E 004°48'0 0.0
2017-Mar-17 10:33N 43°23' E 004°48'0 0.0
2017-Mar-17 09:30N 43°23' E 004°48'0 0.0
2017-Mar-17 08:27N 43°23' E 004°48'0 0.0
2017-Mar-17 07:33N 43°23' E 004°48'0 0.0
2017-Mar-17 06:33N 43°23' E 004°48'0 0.0
2017-Mar-17 05:33N 43°23' E 004°48'0 0.0
2017-Mar-17 04:23N 43°23' E 004°48'0 0.0
2017-Mar-17 03:32N 43°23' E 004°48'0 0.0
2017-Mar-17 02:29N 43°23' E 004°48'0 0.0
2017-Mar-17 01:23N 43°23' E 004°48'0 0.0
2017-Mar-17 00:32N 43°23' E 004°48'0 0.0
2017-Mar-16 23:32N 43°23' E 004°48'0 0.0
2017-Mar-16 22:20N 43°23' E 004°48'0 0.0
2017-Mar-16 21:26N 43°23' E 004°48'0 0.0
2017-Mar-16 20:29N 43°23' E 004°48'0 0.0
2017-Mar-16 16:26N 43°23' E 004°48'3 0.3
2017-Mar-16 07:33N 43°23' E 004°52'31 6.1
2017-Mar-16 02:26N 43°00' E 005°21'6 6.6
2017-Mar-16 01:30N 42°55' E 005°25'20 6.8
2017-Mar-15 22:33N 42°38' E 005°41'7 6.5
2017-Mar-15 21:33N 42°34' E 005°47'7 6.1
2017-Mar-15 20:27N 42°28' E 005°52'6 6.3
2017-Mar-15 19:34N 42°24' E 005°57'  
Track history (hours):
 
Tides and Currents Weather Stations Pressure Air Temp Water Temp Dewpoint Dewpoint Depression Visibility Wind Speed Wind Dir Waves Ship Positions

Eurika

Last reported at 2017-Mar-25 01:10 UTC. Time now 2017-Mar-25 03:54 UTC.
Position N 43°23' E 004°48'.

Length 79 m; draft 3.1 m.

MMSI: 277335000.

Date/timePositionNaut miles runAvg speedWind from/ knotsBaromVisibWave heightAir tempDewpointWater temp
2017-Mar-25 01:10N 43°23' E 004°48'  
2017-Mar-17 18:15N 43°23' E 004°48'0 0.0
2017-Mar-17 17:30N 43°23' E 004°48'0 0.0
2017-Mar-17 16:33N 43°23' E 004°48'0 0.0
2017-Mar-17 15:27N 43°23' E 004°48'0 0.0
2017-Mar-17 14:33N 43°23' E 004°48'0 0.0
2017-Mar-17 13:33N 43°23' E 004°48'0 0.0
2017-Mar-17 12:33N 43°23' E 004°48'0 0.0
2017-Mar-17 11:24N 43°23' E 004°48'0 0.0
2017-Mar-17 10:33N 43°23' E 004°48'0 0.0
2017-Mar-17 09:30N 43°23' E 004°48'0 0.0
2017-Mar-17 08:27N 43°23' E 004°48'0 0.0
2017-Mar-17 07:33N 43°23' E 004°48'0 0.0
2017-Mar-17 06:33N 43°23' E 004°48'0 0.0
2017-Mar-17 05:33N 43°23' E 004°48'0 0.0
2017-Mar-17 04:23N 43°23' E 004°48'0 0.0
2017-Mar-17 03:32N 43°23' E 004°48'0 0.0
2017-Mar-17 02:29N 43°23' E 004°48'0 0.0
2017-Mar-17 01:23N 43°23' E 004°48'0 0.0
2017-Mar-17 00:32N 43°23' E 004°48'0 0.0
2017-Mar-16 23:32N 43°23' E 004°48'0 0.0
2017-Mar-16 22:20N 43°23' E 004°48'0 0.0
2017-Mar-16 21:26N 43°23' E 004°48'0 0.0
2017-Mar-16 20:29N 43°23' E 004°48'0 0.0
2017-Mar-16 16:26N 43°23' E 004°48'3 0.3
2017-Mar-16 07:33N 43°23' E 004°52'31 6.1
2017-Mar-16 02:26N 43°00' E 005°21'6 6.6
2017-Mar-16 01:30N 42°55' E 005°25'20 6.8
2017-Mar-15 22:33N 42°38' E 005°41'7 6.5
2017-Mar-15 21:33N 42°34' E 005°47'7 6.1
2017-Mar-15 20:27N 42°28' E 005°52'6 6.3
2017-Mar-15 19:34N 42°24' E 005°57'  

Dump ship's entire track history